Time;durP1;ratioP1;P1;durP2;ratioP2;P2;SDS_P1;SDS_P2;PMS_P1;PMS_P2;Temp;Humidity;BMP_temperature;BMP_pressure;BME280_temperature;BME280_humidity;BME280_pressure;Samples;Min_cycle;Max_cycle;Signal;HPM_P1;HPM_P2
2021/11/17 02:40:36;;;;;;;18.50;13.33;;;;;;;8.92;81.78;95453.84;5095113;28;20974;-86
2021/11/17 02:43:28;;;;;;;16.77;12.53;;;;;;;8.96;81.27;95455.31;5095702;28;20838;-85
2021/11/17 02:46:08;;;;;;;15.07;11.10;;;;;;;8.97;81.80;95459.63;5095247;28;20525;-85
2021/11/17 02:48:51;;;;;;;18.83;11.50;;;;;;;9.00;81.64;95454.19;5095756;28;20426;-84
2021/11/17 02:51:37;;;;;;;18.13;11.10;;;;;;;8.96;81.19;95452.69;5095641;28;20465;-86
2021/11/17 02:54:21;;;;;;;15.33;10.63;;;;;;;8.96;81.32;95453.56;5095295;28;20489;-84
2021/11/17 02:57:06;;;;;;;15.07;11.83;;;;;;;8.98;81.19;95450.84;5095271;28;20508;-85
2021/11/17 02:59:54;;;;;;;17.97;10.77;;;;;;;8.90;81.12;95448.72;5095418;28;20508;-86
2021/11/17 03:02:41;;;;;;;17.43;13.63;;;;;;;8.90;80.87;95451.34;5096202;28;20809;-85
2021/11/17 03:05:41;;;;;;;16.00;11.90;;;;;;;8.58;82.30;95452.72;5033482;28;20463;-86
2021/11/17 03:08:24;;;;;;;18.53;12.47;;;;;;;8.33;83.33;95454.38;4974494;28;20447;-85
2021/11/17 03:11:08;;;;;;;20.90;12.10;;;;;;;8.21;84.10;95454.31;4974839;28;20925;-85
2021/11/17 03:13:54;;;;;;;15.23;10.30;;;;;;;8.06;84.83;95449.16;4974986;28;20458;-86
2021/11/17 03:16:40;;;;;;;13.73;9.83;;;;;;;8.08;85.55;95442.06;4974625;28;20460;-85
2021/11/17 03:19:23;;;;;;;20.87;11.77;;;;;;;8.04;84.81;95444.97;4974273;28;20866;-85
2021/11/17 03:22:12;;;;;;;14.50;10.20;;;;;;;7.98;85.58;95448.00;4974234;28;20449;-85
2021/11/17 03:24:54;;;;;;;13.00;10.60;;;;;;;7.68;87.25;95438.59;4973958;28;20530;-86
2021/11/17 03:27:42;;;;;;;14.50;10.77;;;;;;;7.67;87.94;95436.94;4974007;28;20566;-86
2021/11/17 03:30:37;;;;;;;13.20;10.90;;;;;;;7.65;88.04;95443.19;4974422;28;20452;-85
2021/11/17 03:33:35;;;;;;;13.13;9.67;;;;;;;7.64;88.61;95428.47;4974063;28;20894;-85
2021/11/17 03:36:20;;;;;;;15.40;10.20;;;;;;;7.59;88.73;95433.16;4974044;28;20452;-85
2021/11/17 03:39:02;;;;;;;14.70;10.77;;;;;;;7.64;88.89;95431.06;4974074;28;20529;-86
2021/11/17 03:41:48;;;;;;;16.30;11.40;;;;;;;7.59;89.17;95433.16;4982802;28;20522;-85
2021/11/17 03:44:29;;;;;;;14.93;9.87;;;;;;;7.60;88.82;95425.22;5032631;28;20464;-85
2021/11/17 03:47:30;;;;;;;13.00;10.33;;;;;;;7.51;90.03;95424.94;5094669;28;20545;-85
2021/11/17 03:50:29;;;;;;;17.17;11.27;;;;;;;7.51;90.25;95431.00;5052110;28;20455;-85
2021/11/17 03:53:13;;;;;;;15.43;11.17;;;;;;;7.53;90.72;95433.56;4973790;28;20538;-85
2021/11/17 03:55:57;;;;;;;16.37;9.70;;;;;;;7.46;90.99;95428.69;4973635;28;20558;-85
2021/11/17 03:58:40;;;;;;;17.23;11.50;;;;;;;7.63;90.76;95426.78;4973662;28;20484;-85
2021/11/17 04:01:32;;;;;;;19.60;13.20;;;;;;;7.73;89.63;95425.25;4973452;28;21012;-85
2021/11/17 04:04:13;;;;;;;16.20;10.53;;;;;;;7.67;90.06;95431.72;4897309;29;20917;-84
2021/11/17 04:06:55;;;;;;;15.60;10.80;;;;;;;7.92;89.35;95423.13;4897373;29;20480;-85
2021/11/17 04:09:40;;;;;;;17.90;11.33;;;;;;;8.02;88.68;95420.72;4866436;29;20805;-85
2021/11/17 04:18:59;;;;;;;18.37;12.20;;;;;;;7.75;89.99;95418.97;4897154;29;20465;-85
2021/11/17 04:21:53;;;;;;;18.03;13.07;;;;;;;7.86;90.05;95428.75;4897172;29;20489;-86
2021/11/17 04:24:39;;;;;;;16.97;10.80;;;;;;;7.94;88.51;95425.63;4897411;29;20469;-86
2021/11/17 04:27:23;;;;;;;20.13;11.57;;;;;;;7.96;88.81;95427.19;4943233;29;20538;-86
2021/11/17 04:30:21;;;;;;;14.03;10.43;;;;;;;8.14;87.85;95424.31;4982423;28;20461;-85
2021/11/17 04:33:01;;;;;;;16.40;10.20;;;;;;;8.08;87.90;95426.38;4973321;28;20547;-86
2021/11/17 04:35:53;;;;;;;11.23;9.50;;;;;;;8.16;87.38;95430.28;4973488;28;21008;-86
2021/11/17 04:38:43;;;;;;;16.73;10.73;;;;;;;8.18;87.83;95438.84;4973526;28;20532;-86
2021/11/17 04:41:25;;;;;;;13.47;9.97;;;;;;;8.19;87.64;95443.13;4999802;28;20483;-86
2021/11/17 04:44:16;;;;;;;17.43;11.40;;;;;;;8.30;87.06;95441.47;5032295;28;20455;-86
2021/11/17 04:46:56;;;;;;;15.27;10.30;;;;;;;8.31;86.61;95434.47;5032020;28;20438;-84
2021/11/17 04:50:02;;;;;;;17.60;12.00;;;;;;;8.39;85.68;95440.06;5031921;28;20453;-86
2021/11/17 04:52:48;;;;;;;17.37;11.60;;;;;;;8.37;86.30;95427.06;4953615;29;20456;-86
2021/11/17 04:55:44;;;;;;;20.30;11.03;;;;;;;8.42;85.84;95434.63;4956113;28;20488;-85
2021/11/17 04:58:34;;;;;;;18.67;12.30;;;;;;;8.29;86.23;95441.56;4909381;29;20455;-85
2021/11/17 05:01:21;;;;;;;18.20;12.17;;;;;;;8.32;85.76;95444.81;4957442;29;20494;-85
2021/11/17 05:04:04;;;;;;;17.07;10.97;;;;;;;8.13;86.38;95440.94;4957646;29;20465;-85
2021/11/17 05:06:47;;;;;;;21.17;12.37;;;;;;;8.13;86.23;95433.94;4957256;29;20923;-85
2021/11/17 05:09:24;;;;;;;19.40;12.57;;;;;;;8.19;85.91;95440.53;4972695;28;20951;-86
2021/11/17 05:12:05;;;;;;;23.57;13.60;;;;;;;8.12;86.18;95442.72;5015629;28;20441;-86
2021/11/17 05:14:39;;;;;;;18.90;12.63;;;;;;;8.07;86.43;95443.00;5015430;28;20437;-86
2021/11/17 05:17:18;;;;;;;22.57;13.83;;;;;;;8.03;86.62;95449.38;5015573;28;20555;-86
2021/11/17 05:19:56;;;;;;;25.10;12.80;;;;;;;8.07;86.67;95440.38;5015342;28;20443;-86
2021/11/17 05:22:47;;;;;;;17.20;12.33;;;;;;;8.12;86.56;95436.66;5015682;28;21057;-86
2021/11/17 05:25:29;;;;;;;22.93;12.73;;;;;;;8.07;86.56;95444.78;5015315;28;20955;-86
2021/11/17 05:28:39;;;;;;;18.97;12.57;;;;;;;8.21;86.01;95446.50;5027000;28;20448;-86
2021/11/17 05:31:27;;;;;;;20.87;12.43;;;;;;;8.21;85.64;95454.31;5035015;28;20484;-86
2021/11/17 05:34:35;;;;;;;23.60;14.70;;;;;;;8.25;85.92;95453.19;4976242;28;20538;-86
2021/11/17 05:37:12;;;;;;;25.03;15.43;;;;;;;8.25;85.69;95458.41;4919131;29;21083;-86
2021/11/17 05:39:51;;;;;;;20.53;12.83;;;;;;;8.33;86.53;95461.34;4918428;29;20470;-86
2021/11/17 05:42:34;;;;;;;18.50;11.90;;;;;;;8.37;85.49;95460.22;4918653;29;20471;-85
2021/11/17 05:45:17;;;;;;;24.33;12.90;;;;;;;8.31;85.21;95458.84;4919112;29;20447;-86
2021/11/17 05:51:41;;;;;;;22.87;16.20;;;;;;;8.33;85.38;95469.19;4899890;29;20482;-84
2021/11/17 05:54:27;;;;;;;27.10;14.50;;;;;;;8.23;85.71;95475.97;4898953;29;20481;-81
2021/11/17 05:57:21;;;;;;;20.47;13.90;;;;;;;8.30;86.73;95467.63;4899059;29;20489;-84
2021/11/17 06:00:02;;;;;;;27.37;17.13;;;;;;;8.40;88.73;95467.91;4904070;29;20541;-86
2021/11/17 06:02:41;;;;;;;24.47;15.80;;;;;;;8.46;86.67;95479.72;4872559;29;20505;-81
2021/11/17 06:05:07;;;;;;;22.63;15.70;;;;;;;8.52;85.85;95467.06;4869244;29;20552;-80
2021/11/17 06:07:34;;;;;;;25.25;16.77;;;;;;;8.63;86.07;95475.00;4914123;29;20465;-81
2021/11/17 06:10:08;;;;;;;31.10;19.97;;;;;;;8.73;84.53;95475.25;4924057;28;20208;-82
2021/11/17 06:12:36;;;;;;;27.43;15.70;;;;;;;8.68;83.38;95478.16;5023185;28;20527;-82
2021/11/17 06:15:05;;;;;;;21.20;14.10;;;;;;;8.67;83.39;95493.94;5097559;28;20967;-82
2021/11/17 06:17:33;;;;;;;20.60;15.00;;;;;;;8.73;83.96;95485.69;5097487;28;20447;-82
2021/11/17 06:20:00;;;;;;;24.60;16.30;;;;;;;8.73;83.27;95480.47;5098507;28;20499;-85
2021/11/17 06:25:51;;;;;;;19.13;13.43;;;;;;;8.70;82.43;95501.63;5096734;28;20390;-81
2021/11/17 06:28:21;;;;;;;24.40;15.33;;;;;;;8.67;82.80;95497.44;5096141;28;20449;-82
2021/11/17 06:30:48;;;;;;;20.27;13.50;;;;;;;8.56;82.65;95493.84;5095607;28;20437;-82
2021/11/17 06:33:15;;;;;;;20.63;12.93;;;;;;;8.47;82.71;95499.69;5095747;28;20540;-80
2021/11/17 06:35:42;;;;;;;24.00;14.30;;;;;;;8.42;82.59;95501.78;5096107;28;20442;-82
2021/11/17 06:38:10;;;;;;;21.60;14.87;;;;;;;8.48;82.68;95510.06;5043711;28;20936;-83
2021/11/17 06:40:41;;;;;;;26.87;15.20;;;;;;;8.52;82.11;95508.91;5095605;28;20500;-82
2021/11/17 06:43:10;;;;;;;22.23;14.30;;;;;;;8.43;82.29;95504.28;5095569;28;20513;-81
2021/11/17 06:45:40;;;;;;;17.27;11.97;;;;;;;8.36;82.71;95508.22;5095593;28;20796;-81
2021/11/17 06:48:09;;;;;;;23.13;14.20;;;;;;;8.41;82.46;95506.19;5095706;28;21019;-81
2021/11/17 06:50:39;;;;;;;22.10;15.20;;;;;;;8.44;81.72;95507.75;5095621;28;20463;-83
2021/11/17 06:53:07;;;;;;;17.33;10.83;;;;;;;8.40;82.26;95512.34;5095335;28;20923;-82
2021/11/17 06:55:34;;;;;;;20.40;12.90;;;;;;;8.41;81.91;95514.03;5095278;28;20505;-83
2021/11/17 06:58:01;;;;;;;17.83;13.13;;;;;;;8.45;81.68;95515.50;5095217;28;20442;-81
2021/11/17 07:00:34;;;;;;;14.30;10.10;;;;;;;8.41;81.99;95514.03;5095202;28;20813;-82
2021/11/17 07:03:01;;;;;;;23.07;13.10;;;;;;;8.48;81.62;95514.44;5094740;28;21298;-82
2021/11/17 07:05:29;;;;;;;22.20;14.00;;;;;;;8.29;82.75;95510.38;5094776;28;20540;-83
2021/11/17 07:07:57;;;;;;;19.73;13.07;;;;;;;8.37;81.84;95510.75;5094712;28;20504;-83
2021/11/17 07:10:27;;;;;;;19.13;12.80;;;;;;;8.38;81.83;95514.19;5094920;28;20459;-82
2021/11/17 07:13:50;;;;;;;23.30;14.20;;;;;;;8.36;82.12;95518.69;5094552;28;20438;-82
2021/11/17 07:16:18;;;;;;;19.73;13.70;;;;;;;8.40;82.46;95517.56;5094966;28;20514;-82
2021/11/17 07:18:45;;;;;;;19.63;13.60;;;;;;;8.50;82.05;95520.41;5094685;28;20444;-82
2021/11/17 07:21:12;;;;;;;24.00;14.77;;;;;;;8.50;82.07;95518.63;5094978;28;20505;-82
2021/11/17 07:23:39;;;;;;;22.33;15.03;;;;;;;8.60;82.00;95527.53;5094264;28;20522;-83
2021/11/17 07:26:06;;;;;;;38.27;24.57;;;;;;;8.55;81.46;95521.78;5059363;28;20441;-82
2021/11/17 07:28:33;;;;;;;54.53;38.77;;;;;;;8.65;81.53;95514.97;5059084;28;20542;-84
2021/11/17 07:31:00;;;;;;;29.63;20.07;;;;;;;8.70;81.14;95519.94;5094232;28;20526;-83
2021/11/17 07:33:29;;;;;;;23.07;15.17;;;;;;;8.68;80.91;95525.25;5094536;28;20446;-84
2021/11/17 07:35:56;;;;;;;25.53;14.60;;;;;;;8.62;80.68;95530.88;5094220;28;20523;-82
2021/11/17 07:38:25;;;;;;;18.50;14.00;;;;;;;8.67;80.31;95531.44;5094005;28;20441;-82
2021/11/17 07:40:53;;;;;;;26.37;16.70;;;;;;;8.69;81.59;95534.78;5094757;28;20911;-86
2021/11/17 07:43:23;;;;;;;23.40;13.80;;;;;;;8.71;81.13;95529.44;5094288;28;20481;-82
2021/11/17 07:45:50;;;;;;;19.00;15.07;;;;;;;8.71;85.50;95528.63;5094282;28;21011;-83
2021/11/17 07:48:20;;;;;;;21.70;14.00;;;;;;;9.09;92.30;95521.59;5094026;28;20473;-87
2021/11/17 07:50:49;;;;;;;20.00;13.53;;;;;;;9.14;80.90;95540.44;5094114;28;20446;-81
2021/11/17 08:00:08;;;;;;;20.57;13.60;;;;;;;8.94;78.75;95528.72;5053855;28;20450;-81
2021/11/17 08:02:36;;;;;;;19.07;14.27;;;;;;;8.92;78.10;95529.75;5035430;28;20569;-82
2021/11/17 08:05:04;;;;;;;27.77;16.37;;;;;;;8.71;79.63;95529.44;5054642;28;20450;-82
2021/11/17 08:07:33;;;;;;;26.77;17.30;;;;;;;8.79;79.72;95532.38;5053524;28;20974;-82
2021/11/17 08:10:00;;;;;;;42.33;19.43;;;;;;;8.88;79.43;95531.75;5053646;28;20448;-81
2021/11/17 08:12:28;;;;;;;26.90;18.47;;;;;;;8.91;78.87;95530.69;5053944;28;20426;-83
2021/11/17 08:14:57;;;;;;;25.43;17.60;;;;;;;8.58;79.74;95534.66;5053896;28;20437;-81
2021/11/17 08:17:24;;;;;;;22.10;16.20;;;;;;;8.65;79.07;95535.06;5053399;28;20440;-81
2021/11/17 08:19:51;;;;;;;21.67;15.37;;;;;;;8.56;78.71;95538.31;5053462;28;20447;-83
2021/11/17 08:22:18;;;;;;;22.17;16.43;;;;;;;8.53;79.11;95534.13;5053049;28;20573;-81
2021/11/17 08:24:46;;;;;;;19.07;13.10;;;;;;;8.53;78.35;95530.66;5053016;28;20479;-81
2021/11/17 08:27:18;;;;;;;23.57;15.80;;;;;;;8.55;78.20;95528.78;5052811;28;20522;-82
2021/11/17 08:29:47;;;;;;;27.70;17.60;;;;;;;8.33;79.38;95524.97;5052865;28;20489;-81
2021/11/17 08:32:14;;;;;;;26.60;16.57;;;;;;;8.17;79.22;95524.28;5053482;28;20509;-81
2021/11/17 08:34:41;;;;;;;34.90;18.50;;;;;;;8.11;79.73;95527.31;5052654;28;20442;-81
2021/11/17 08:37:08;;;;;;;23.57;14.93;;;;;;;8.15;81.06;95523.53;5053872;28;20941;-82
2021/11/17 08:39:36;;;;;;;20.60;13.73;;;;;;;8.11;81.34;95518.63;5052648;28;21037;-82
2021/11/17 08:42:05;;;;;;;19.43;13.80;;;;;;;8.30;81.69;95524.31;5052753;28;20585;-82
2021/11/17 08:44:32;;;;;;;18.43;14.60;;;;;;;8.43;82.12;95527.00;5052980;28;20444;-82
2021/11/17 08:46:58;;;;;;;18.03;13.90;;;;;;;8.31;82.03;95526.81;5052851;28;20490;-82
2021/11/17 08:49:26;;;;;;;19.47;14.73;;;;;;;8.38;81.97;95520.28;5052625;28;20530;-83
2021/11/17 08:51:53;;;;;;;21.07;14.67;;;;;;;8.42;82.57;95523.53;5050610;28;20503;-81
2021/11/17 08:54:20;;;;;;;18.93;13.67;;;;;;;8.46;82.20;95524.19;5052790;28;20449;-82
2021/11/17 08:56:47;;;;;;;19.53;12.60;;;;;;;8.41;81.40;95536.72;5053124;28;20865;-82
2021/11/17 08:59:15;;;;;;;18.70;13.10;;;;;;;8.26;84.48;95528.91;5082055;28;20485;-82
2021/11/17 09:01:43;;;;;;;17.43;12.50;;;;;;;8.27;86.26;95514.03;5093089;28;20913;-83
2021/11/17 09:04:10;;;;;;;17.80;13.83;;;;;;;8.23;86.72;95515.19;5093760;28;20457;-81
2021/11/17 09:06:38;;;;;;;16.90;13.00;;;;;;;8.27;86.41;95516.66;5058188;28;20777;-80
2021/11/17 09:12:27;;;;;;;19.27;13.70;;;;;;;8.41;85.29;95506.19;5093364;28;20396;-81
2021/11/17 09:14:56;;;;;;;14.37;11.27;;;;;;;8.24;85.49;95506.41;5093189;28;20417;-82
2021/11/17 09:17:22;;;;;;;16.53;13.50;;;;;;;8.23;85.58;95507.34;5093022;28;20521;-81
2021/11/17 09:19:49;;;;;;;16.93;12.17;;;;;;;8.16;85.59;95503.47;5092711;28;20887;-82
2021/11/17 09:22:16;;;;;;;16.67;13.40;;;;;;;8.14;84.83;95497.50;5093440;28;20559;-81
2021/11/17 09:24:44;;;;;;;16.10;12.90;;;;;;;8.24;84.21;95498.56;5058042;28;20433;-81
2021/11/17 09:27:11;;;;;;;17.37;12.93;;;;;;;8.27;83.58;95499.19;5092814;28;20937;-81
2021/11/17 09:29:38;;;;;;;20.13;12.90;;;;;;;8.41;83.51;95505.34;5057843;28;20433;-80
2021/11/17 09:32:08;;;;;;;16.70;13.00;;;;;;;8.34;83.12;95502.28;5093399;28;20557;-81
2021/11/17 09:34:36;;;;;;;21.03;13.10;;;;;;;8.32;82.97;95493.66;5092988;28;20441;-81
2021/11/17 09:37:03;;;;;;;17.43;13.67;;;;;;;8.31;83.00;95497.22;5092875;28;20454;-81
2021/11/17 09:53:02;;;;;;;15.70;13.00;;;;;;;8.70;81.00;95485.91;5096102;28;20405;-81
2021/11/17 09:55:33;;;;;;;13.67;10.90;;;;;;;8.71;80.34;95482.34;5096227;28;20792;-81
2021/11/17 09:58:04;;;;;;;12.30;10.20;;;;;;;8.58;79.82;95479.72;5095989;28;20486;-81
2021/11/17 10:00:44;;;;;;;14.23;11.50;;;;;;;8.54;79.85;95466.94;5096248;28;20533;-81
2021/11/17 10:03:14;;;;;;;16.20;11.83;;;;;;;8.61;80.71;95462.97;5095615;28;20979;-82
2021/11/17 10:11:34;;;;;;;24.60;16.10;;;;;;;8.85;78.80;95453.44;5091705;28;20439;-81
2021/11/17 10:14:10;;;;;;;18.47;13.40;;;;;;;8.80;78.57;95459.94;5095511;28;20485;-81
2021/11/17 10:16:38;;;;;;;18.47;12.50;;;;;;;8.75;78.60;95449.81;5095139;28;20946;-81
2021/11/17 10:19:21;;;;;;;17.40;11.90;;;;;;;8.86;78.19;95447.28;5095290;28;21016;-82
2021/11/17 10:21:58;;;;;;;17.13;11.83;;;;;;;8.99;78.18;95447.28;5074748;28;20481;-80
2021/11/17 10:24:41;;;;;;;16.50;13.10;;;;;;;9.11;78.29;95445.56;5074810;28;20454;-82
2021/11/17 10:27:10;;;;;;;17.73;12.50;;;;;;;9.10;77.50;95447.34;5076600;28;20454;-80
2021/11/17 10:29:40;;;;;;;16.67;12.00;;;;;;;8.93;77.64;95443.28;5076352;28;20481;-81
2021/11/17 10:32:18;;;;;;;16.93;11.43;;;;;;;8.92;77.65;95435.53;5087427;28;20455;-80
2021/11/17 10:34:59;;;;;;;14.33;11.33;;;;;;;8.86;77.50;95430.72;5089904;28;20820;-80
2021/11/17 10:37:31;;;;;;;15.63;11.37;;;;;;;8.95;78.16;95437.94;5090915;28;20461;-80
2021/11/17 10:40:11;;;;;;;15.37;12.40;;;;;;;9.08;77.56;95445.78;5095051;28;20438;-80
2021/11/17 10:42:40;;;;;;;16.53;12.63;;;;;;;9.03;76.72;95442.66;5095097;28;20476;-81
2021/11/17 10:45:26;;;;;;;14.00;11.63;;;;;;;9.09;76.41;95439.59;5094684;28;20601;-81
2021/11/17 10:47:54;;;;;;;13.90;11.40;;;;;;;9.22;76.58;95436.00;5074943;28;20446;-80
2021/11/17 10:50:27;;;;;;;14.97;11.13;;;;;;;9.25;76.37;95425.34;5074636;28;20507;-81
2021/11/17 10:52:58;;;;;;;14.47;11.90;;;;;;;9.23;75.96;95424.59;5074483;28;20561;-81
2021/11/17 10:55:30;;;;;;;16.33;12.97;;;;;;;9.24;75.38;95426.25;5074589;28;20482;-81
2021/11/17 10:57:58;;;;;;;14.10;11.57;;;;;;;9.15;76.50;95428.69;5074438;28;20472;-80
2021/11/17 11:00:30;;;;;;;13.70;11.23;;;;;;;9.11;77.01;95422.84;5073759;28;20443;-81
2021/11/17 11:02:58;;;;;;;13.90;11.53;;;;;;;9.20;76.02;95421.34;5074000;28;20491;-81
2021/11/17 11:05:29;;;;;;;14.57;11.63;;;;;;;9.30;75.96;95412.75;5074071;28;20937;-81
2021/11/17 11:08:01;;;;;;;16.20;10.30;;;;;;;9.34;75.34;95413.38;5073734;28;20447;-82
2021/11/17 11:10:33;;;;;;;14.17;10.40;;;;;;;9.41;75.79;95406.72;5074410;28;20503;-82
2021/11/17 11:13:03;;;;;;;11.87;9.63;;;;;;;9.14;76.29;95406.91;5040534;28;20443;-82
2021/11/17 11:15:36;;;;;;;10.70;9.50;;;;;;;9.22;76.62;95406.38;5084298;28;20442;-82
2021/11/17 11:18:26;;;;;;;11.37;9.40;;;;;;;9.11;76.63;95406.31;5092104;28;20541;-81
2021/11/17 11:20:55;;;;;;;14.10;8.40;;;;;;;9.05;76.48;95406.75;5051809;28;20567;-82
2021/11/17 11:23:26;;;;;;;10.97;9.40;;;;;;;9.09;77.52;95401.19;5046578;28;20482;-83
2021/11/17 11:26:19;;;;;;;14.10;11.40;;;;;;;9.22;76.71;95398.50;5046425;28;20534;-81
2021/11/17 11:28:52;;;;;;;16.23;12.80;;;;;;;9.27;76.22;95401.66;4962585;28;20461;-81
2021/11/17 11:31:36;;;;;;;15.80;12.87;;;;;;;9.36;74.45;95400.16;4920274;29;20882;-82
2021/11/17 11:34:48;;;;;;;15.03;12.13;;;;;;;9.50;74.82;95399.97;4953713;28;20450;-83
2021/11/17 11:37:59;;;;;;;18.13;11.13;;;;;;;9.74;74.02;95390.34;4950643;28;20537;-82
2021/11/17 11:41:07;;;;;;;17.33;12.60;;;;;;;9.85;72.32;95390.41;4896594;29;20523;-80
2021/11/17 11:43:39;;;;;;;20.10;13.60;;;;;;;9.76;72.44;95387.59;4909425;29;20703;-81
2021/11/17 11:46:31;;;;;;;14.30;11.43;;;;;;;9.89;72.84;95388.38;4899220;29;20448;-81
2021/11/17 11:49:02;;;;;;;14.00;11.30;;;;;;;9.70;72.64;95388.91;4914985;29;20511;-80
2021/11/17 11:51:49;;;;;;;16.93;12.03;;;;;;;9.38;73.90;95385.16;4914873;29;20499;-81
2021/11/17 11:54:21;;;;;;;15.30;11.80;;;;;;;9.22;75.41;95385.41;4914666;29;20561;-81
2021/11/17 11:56:51;;;;;;;15.00;11.70;;;;;;;9.44;74.56;95380.31;4914852;29;20460;-81
2021/11/17 11:59:24;;;;;;;17.00;12.80;;;;;;;9.51;74.87;95375.47;4933686;29;20587;-81
2021/11/17 12:02:04;;;;;;;14.07;12.20;;;;;;;9.46;74.81;95375.78;4933527;29;20632;-81
2021/11/17 12:04:31;;;;;;;14.93;10.67;;;;;;;9.52;74.70;95369.28;4942318;28;20541;-82
2021/11/17 12:07:04;;;;;;;15.07;12.17;;;;;;;9.41;74.86;95372.69;4943513;28;20543;-82
2021/11/17 12:09:37;;;;;;;19.97;11.40;;;;;;;9.57;74.53;95375.03;4991567;28;20836;-83
2021/11/17 12:12:10;;;;;;;13.57;11.43;;;;;;;9.75;74.60;95375.44;5061671;28;20469;-82
2021/11/17 12:14:45;;;;;;;17.47;11.80;;;;;;;9.52;74.57;95379.75;5038862;28;20953;-82
2021/11/17 12:17:13;;;;;;;16.53;11.67;;;;;;;9.37;74.96;95380.88;5028460;28;20541;-82
2021/11/17 12:19:48;;;;;;;15.00;12.37;;;;;;;9.42;75.20;95376.97;5092676;28;20433;-82
2021/11/17 12:22:36;;;;;;;20.83;12.30;;;;;;;9.42;75.50;95370.91;5093298;28;20963;-82
2021/11/17 12:25:14;;;;;;;15.23;12.17;;;;;;;9.40;75.59;95370.19;5093104;28;20963;-82
2021/11/17 12:27:43;;;;;;;18.10;12.30;;;;;;;9.35;76.23;95361.81;5093448;28;20447;-81
2021/11/17 12:30:19;;;;;;;16.90;12.30;;;;;;;9.38;75.62;95364.22;5093686;28;20439;-85
2021/11/17 12:32:52;;;;;;;19.57;13.20;;;;;;;9.12;76.39;95361.69;5093607;28;20788;-82
2021/11/17 12:35:28;;;;;;;17.27;12.47;;;;;;;9.08;76.52;95370.72;5093270;28;20434;-81
2021/11/17 12:37:58;;;;;;;15.07;11.03;;;;;;;9.07;76.12;95363.81;5094035;28;20482;-82
2021/11/17 12:40:39;;;;;;;16.80;11.07;;;;;;;9.05;77.29;95363.06;5093342;28;20813;-84
2021/11/17 12:43:08;;;;;;;12.03;10.40;;;;;;;9.01;77.11;95361.63;5093305;28;20496;-81
2021/11/17 12:45:45;;;;;;;12.17;10.43;;;;;;;9.00;77.61;95354.72;5093320;28;20439;-81
2021/11/17 12:48:22;;;;;;;15.33;9.93;;;;;;;8.86;77.36;95365.31;5093546;28;20477;-81
2021/11/17 12:50:54;;;;;;;15.50;12.70;;;;;;;8.94;77.50;95362.97;5093604;28;20640;-82
2021/11/17 12:53:25;;;;;;;68.33;46.80;;;;;;;8.93;77.27;95361.31;5094036;28;20478;-82
2021/11/17 12:56:07;;;;;;;33.70;30.20;;;;;;;9.13;77.05;95360.75;5093456;28;20457;-81
2021/11/17 12:58:37;;;;;;;40.87;32.40;;;;;;;9.08;76.69;95357.63;5092694;28;20962;-81
2021/11/17 13:01:30;;;;;;;146.90;117.23;;;;;;;9.20;76.72;95361.97;5092971;28;20431;-81
2021/11/17 13:04:20;;;;;;;45.97;34.43;;;;;;;9.10;76.69;95360.97;5093189;28;20494;-82
2021/11/17 13:06:52;;;;;;;19.63;13.00;;;;;;;9.21;76.80;95365.41;5092168;28;20431;-79
2021/11/17 13:13:12;;;;;;;29.07;26.07;;;;;;;9.18;77.43;95363.84;5093058;28;20823;-80
2021/11/17 13:15:43;;;;;;;16.40;11.50;;;;;;;8.96;77.29;95368.94;5012501;28;20436;-82
2021/11/17 13:18:32;;;;;;;17.87;16.00;;;;;;;8.97;77.20;95373.25;5014686;28;20438;-79
2021/11/17 13:21:14;;;;;;;14.67;10.00;;;;;;;8.95;77.22;95364.66;5014836;28;20481;-78
2021/11/17 13:27:26;;;;;;;20.40;11.97;;;;;;;8.81;77.55;95367.41;5014744;28;20791;-79
2021/11/17 13:29:59;;;;;;;17.00;12.37;;;;;;;8.88;77.83;95364.25;5015339;28;20463;-82
2021/11/17 13:32:33;;;;;;;16.20;9.47;;;;;;;8.69;78.25;95363.91;5014838;28;20465;-82
2021/11/17 13:35:29;;;;;;;11.00;8.87;;;;;;;8.74;78.50;95358.34;5014622;28;20432;-80
2021/11/17 13:38:19;;;;;;;14.73;9.10;;;;;;;8.80;79.00;95358.72;5014515;28;20450;-80
2021/11/17 13:40:49;;;;;;;10.07;8.07;;;;;;;8.78;78.59;95357.16;5014284;28;20445;-79
2021/11/17 13:43:18;;;;;;;11.30;10.00;;;;;;;8.76;78.67;95353.84;5014323;28;20495;-78
2021/11/17 13:45:47;;;;;;;14.53;10.00;;;;;;;8.92;78.83;95355.25;5014279;28;20448;-79
2021/11/17 13:48:16;;;;;;;15.70;10.07;;;;;;;9.04;77.98;95353.56;5014295;28;20441;-80
2021/11/17 13:50:46;;;;;;;10.37;8.40;;;;;;;8.96;77.98;95355.84;5068878;28;20525;-79
2021/11/17 13:53:17;;;;;;;16.13;10.10;;;;;;;9.07;77.63;95350.72;5076309;28;20425;-78
2021/11/17 13:59:07;;;;;;;8.33;7.53;;;;;;;8.74;78.80;95342.63;5070206;28;20828;-80
2021/11/17 14:01:34;;;;;;;12.50;10.40;;;;;;;8.90;78.71;95351.06;5057663;28;20534;-79
2021/11/17 14:04:01;;;;;;;15.00;11.23;;;;;;;8.97;79.16;95347.09;5075673;28;20488;-79
2021/11/17 14:06:30;;;;;;;13.60;10.43;;;;;;;8.95;79.09;95333.25;5075621;28;20523;-80
2021/11/17 14:08:56;;;;;;;10.53;9.17;;;;;;;8.93;78.75;95354.28;5024571;28;21026;-79
2021/11/17 14:11:23;;;;;;;14.53;11.60;;;;;;;8.83;78.96;95347.22;5075737;28;20451;-79
2021/11/17 14:13:50;;;;;;;13.80;10.20;;;;;;;8.79;79.34;95345.75;5075956;28;20438;-79
2021/11/17 14:16:19;;;;;;;11.70;9.70;;;;;;;8.87;79.04;95356.50;5075404;28;20460;-80
2021/11/17 14:18:47;;;;;;;24.30;11.27;;;;;;;8.75;79.19;95360.00;5075516;28;20805;-79
2021/11/17 14:21:14;;;;;;;14.23;10.63;;;;;;;8.83;79.27;95360.28;5075312;28;20442;-80
2021/11/17 14:23:43;;;;;;;15.67;10.87;;;;;;;8.77;79.23;95358.13;5075424;28;20479;-80
2021/11/17 14:26:13;;;;;;;13.27;11.90;;;;;;;8.90;79.51;95359.75;5075358;28;20430;-80
2021/11/17 14:28:52;;;;;;;20.47;14.00;;;;;;;8.93;78.50;95351.69;5074640;28;20435;-80
2021/11/17 14:31:23;;;;;;;20.37;13.33;;;;;;;8.95;79.09;95360.25;5075107;28;20446;-80
2021/11/17 14:33:58;;;;;;;15.27;11.47;;;;;;;9.05;78.55;95357.84;5075056;28;20497;-80
2021/11/17 14:36:28;;;;;;;15.77;12.07;;;;;;;9.27;77.95;95347.50;5074999;28;20436;-80
2021/11/17 14:38:57;;;;;;;21.37;14.37;;;;;;;9.22;78.36;95351.38;5075242;28;20444;-80
2021/11/17 14:41:24;;;;;;;18.37;13.47;;;;;;;9.22;77.72;95344.34;5075409;28;20446;-80
2021/11/17 14:43:51;;;;;;;32.33;21.97;;;;;;;9.41;77.28;95354.34;5075462;28;20503;-81
2021/11/17 14:46:18;;;;;;;40.10;30.63;;;;;;;9.51;77.29;95346.66;5075450;28;20528;-81
2021/11/17 14:48:45;;;;;;;20.30;12.63;;;;;;;9.42;76.35;95345.53;5040307;28;20440;-81
2021/11/17 14:51:14;;;;;;;14.77;13.00;;;;;;;9.49;76.87;95354.63;5075361;28;20440;-81
2021/11/17 14:53:43;;;;;;;16.57;12.90;;;;;;;9.56;76.88;95341.94;5074967;28;20527;-81
2021/11/17 14:56:12;;;;;;;15.60;11.70;;;;;;;9.62;76.97;95350.16;5074627;28;20433;-81
2021/11/17 15:02:58;;;;;;;17.13;12.83;;;;;;;9.70;76.42;95349.59;5051622;28;20487;-80
2021/11/17 15:05:27;;;;;;;23.60;14.20;;;;;;;9.72;76.54;95355.56;5034846;28;20437;-80
2021/11/17 15:07:54;;;;;;;31.57;15.43;;;;;;;9.78;76.50;95355.09;5035651;28;20439;-80
2021/11/17 15:10:21;;;;;;;24.57;17.27;;;;;;;9.78;76.24;95349.84;5035905;28;20443;-80
2021/11/17 15:12:50;;;;;;;22.57;17.63;;;;;;;9.65;76.36;95351.72;5034514;28;20531;-81
2021/11/17 15:15:26;;;;;;;25.77;14.87;;;;;;;9.49;76.68;95356.41;5034580;28;20434;-80
2021/11/17 15:17:55;;;;;;;22.33;15.30;;;;;;;9.60;76.80;95351.22;5034920;28;20786;-80
2021/11/17 15:20:22;;;;;;;25.83;15.97;;;;;;;9.66;76.70;95365.66;5035191;28;20840;-80
2021/11/17 15:23:09;;;;;;;25.73;18.23;;;;;;;9.72;76.67;95358.16;5034868;28;20532;-81
2021/11/17 15:25:39;;;;;;;45.00;24.60;;;;;;;9.70;76.20;95357.44;5012571;28;20525;-81
2021/11/17 15:28:11;;;;;;;52.83;31.20;;;;;;;9.68;76.61;95364.59;5012695;28;20453;-81
2021/11/17 15:30:42;;;;;;;71.50;40.60;;;;;;;9.67;76.42;95370.78;5013348;28;20610;-87
2021/11/17 15:36:31;;;;;;;57.10;30.47;;;;;;;9.56;75.95;95368.97;5011916;28;20517;-82
2021/11/17 15:38:57;;;;;;;38.30;24.53;;;;;;;9.59;76.41;95367.91;5013088;28;20432;-83
2021/11/17 15:41:27;;;;;;;29.43;19.47;;;;;;;9.50;76.92;95365.94;5012940;28;20526;-82
2021/11/17 15:43:56;;;;;;;35.53;22.23;;;;;;;9.48;76.54;95365.22;5012376;28;20582;-82
2021/11/17 15:46:24;;;;;;;41.37;25.93;;;;;;;9.44;76.42;95369.00;5012486;28;20446;-82